F/V Mailys Charlie — FMIW — position and weather

sailwx.info

Track history (hours):
 
Tides and Currents Weather Stations Pressure Air Temp Water Temp Dewpoint Dewpoint Depression Visibility Wind Speed Wind Dir Waves Ship Positions

F/V Mailys Charlie

Last reported at 2015-Jul-03 10:34 UTC. Time now 2015-Jul-03 10:39 UTC.
Position N 47°21' W 002°31'.

Length 19 m.

Type: Fishing. MMSI: 228240800.

Date/timePositionNaut miles runAvg speedWind from/ knotsBaromVisibWave heightAir tempDewpointWater temp
2015-Jul-03 10:34N 47°21' W 002°31'0 0.0
2015-Jul-03 09:33N 47°21' W 002°31'0 0.0
2015-Jul-03 08:33N 47°21' W 002°31'0 0.0
2015-Jul-03 07:33N 47°21' W 002°31'0 0.0
2015-Jul-03 06:33N 47°21' W 002°31'0 0.0
2015-Jul-03 05:34N 47°21' W 002°31'0 0.0
2015-Jul-03 04:33N 47°21' W 002°31'0 0.0
2015-Jul-03 03:32N 47°21' W 002°31'0 0.0
2015-Jul-03 02:33N 47°21' W 002°31'0 0.0
2015-Jul-03 01:33N 47°21' W 002°31'0 0.0
2015-Jul-03 00:34N 47°21' W 002°31'0 0.0
2015-Jul-02 23:33N 47°21' W 002°31'0 0.0
2015-Jul-02 22:33N 47°21' W 002°31'0 0.0
2015-Jul-02 21:33N 47°21' W 002°31'0 0.0
2015-Jul-02 20:32N 47°21' W 002°31'0 0.0
2015-Jul-02 19:34N 47°21' W 002°31'0 0.0
2015-Jul-02 18:32N 47°21' W 002°31'0 0.0
2015-Jul-02 17:33N 47°21' W 002°31'0 0.0
2015-Jul-02 16:33N 47°21' W 002°31'0 0.0
2015-Jul-02 15:33N 47°21' W 002°31'0 0.0
2015-Jul-02 14:33N 47°21' W 002°31'0 0.0
2015-Jul-02 13:33N 47°21' W 002°31'0 0.0
2015-Jul-02 12:33N 47°21' W 002°31'0 0.0
2015-Jul-02 11:34N 47°21' W 002°31'0 0.0
2015-Jul-02 10:33N 47°21' W 002°31'0 0.0
2015-Jul-02 09:33N 47°21' W 002°31'0 0.0
2015-Jul-02 08:33N 47°21' W 002°31'0 0.0
2015-Jul-02 07:33N 47°21' W 002°31'0 0.0
2015-Jul-02 06:33N 47°21' W 002°31'0 0.0
2015-Jul-02 05:33N 47°21' W 002°31'10 7.8
2015-Jul-02 04:14N 47°18' W 002°46'1910.1
2015-Jul-02 02:20N 47°13' W 003°13'810.1
2015-Jul-02 01:32N 47°10' W 003°24'1010.0
2015-Jul-02 00:33N 47°08' W 003°38'1010.1
2015-Jul-01 23:31N 47°05' W 003°52'10 9.9
2015-Jul-01 22:33N 47°02' W 004°06'44 8.7
2015-Jul-01 17:30N 46°49' W 005°07'16 1.3
2015-Jul-01 05:18N 46°37' W 004°52'5 5.5
2015-Jul-01 04:28N 46°38' W 004°46'2 1.9
2015-Jul-01 03:33N 46°39' W 004°44'1 0.6
2015-Jul-01 02:32N 46°39' W 004°44'1 1.0
2015-Jul-01 01:32N 46°40' W 004°45'1 1.1
2015-Jul-01 00:33N 46°41' W 004°46'1 1.1
2015-Jun-30 23:33N 46°41' W 004°48'1 0.9
2015-Jun-30 22:32N 46°41' W 004°49'1 0.7
2015-Jun-30 21:24N 46°41' W 004°50'0 0.4
2015-Jun-30 20:30N 46°41' W 004°51'4 4.4
2015-Jun-30 19:33N 46°37' W 004°52'2 2.3
2015-Jun-30 18:33N 46°38' W 004°55'8 7.3
2015-Jun-30 17:30N 46°45' W 004°59'24 2.4
2015-Jun-30 07:33N 46°51' W 005°33'1 0.9
2015-Jun-30 06:24N 46°50' W 005°34'17 1.5
2015-Jun-29 19:20N 46°48' W 005°10'3 3.9
2015-Jun-29 18:33N 46°48' W 005°05'20 9.5
2015-Jun-29 16:27N 46°55' W 004°38'9 9.8
2015-Jun-29 15:33N 46°58' W 004°25'10 9.5
2015-Jun-29 14:30N 47°00' W 004°11'9 9.3
2015-Jun-29 13:30N 47°03' W 003°58'10 9.2
2015-Jun-29 12:22N 47°05' W 003°43'8 9.2
2015-Jun-29 11:33N 47°07' W 003°32'9 9.1
2015-Jun-29 10:33N 47°10' W 003°20'9 9.3
2015-Jun-29 09:33N 47°13' W 003°07'9 9.4
2015-Jun-29 08:33N 47°16' W 002°54'10 9.7
2015-Jun-29 07:33N 47°19' W 002°40'6 6.1
2015-Jun-29 06:29N 47°21' W 002°31'3 1.8
2015-Jun-29 04:33N 47°20' W 002°36'9 9.2
2015-Jun-29 03:33N 47°17' W 002°49'9 9.4
2015-Jun-29 02:33N 47°14' W 003°01'10 9.6
2015-Jun-29 01:33N 47°10' W 003°15'10 9.7
2015-Jun-29 00:33N 47°06' W 003°27'10 9.8
2015-Jun-28 23:33N 47°03' W 003°41'10 9.9
2015-Jun-28 22:33N 46°60' W 003°55'10 9.6
2015-Jun-28 21:32N 46°56' W 004°08'9 9.7
2015-Jun-28 20:33N 46°52' W 004°21'10 9.5
2015-Jun-28 19:31N 46°48' W 004°34'9 9.6
2015-Jun-28 18:33N 46°44' W 004°46'5 4.5
2015-Jun-28 17:30N 46°40' W 004°49'3 3.0
2015-Jun-28 16:25N 46°43' W 004°52'2 1.7
2015-Jun-28 15:06N 46°44' W 004°54'2 4.3
2015-Jun-28 14:33N 46°42' W 004°53'2 0.5
2015-Jun-28 11:13N 46°44' W 004°54'3 4.4
2015-Jun-28 10:30N 46°41' W 004°53'4 0.9
2015-Jun-28 06:32N 46°38' W 004°48'11 3.4
2015-Jun-28 03:11N 46°44' W 004°34'6 9.8
2015-Jun-28 02:33N 46°46' W 004°26'30 9.5
2015-Jun-27 23:26N 46°59' W 003°46'8 9.3
2015-Jun-27 22:33N 47°02' W 003°35'9 9.4
2015-Jun-27 21:33N 47°06' W 003°23'9 9.4
2015-Jun-27 20:33N 47°10' W 003°10'9 9.3
2015-Jun-27 19:33N 47°14' W 002°57'9 9.5
2015-Jun-27 18:33N 47°17' W 002°44'9 8.8
2015-Jun-27 17:33N 47°20' W 002°32'1 1.0
2015-Jun-27 16:33N 47°21' W 002°31'0 0.0
2015-Jun-27 15:33N 47°21' W 002°31'0 0.0
2015-Jun-27 14:33N 47°21' W 002°31'0 0.0
2015-Jun-27 13:33N 47°21' W 002°31'0 0.0
2015-Jun-27 12:33N 47°21' W 002°31'0 0.0
2015-Jun-27 11:33N 47°21' W 002°31'0 0.0
2015-Jun-27 10:33N 47°21' W 002°31'0 0.0
2015-Jun-27 09:33N 47°21' W 002°31'0 0.0
2015-Jun-27 08:32N 47°21' W 002°31'0 0.0
2015-Jun-27 07:33N 47°21' W 002°31'0 0.0
2015-Jun-27 06:33N 47°21' W 002°31'0 0.0
2015-Jun-27 05:33N 47°21' W 002°31'0 0.0
2015-Jun-27 04:33N 47°21' W 002°31'0 0.0
2015-Jun-27 03:33N 47°21' W 002°31'0 0.0
2015-Jun-27 02:33N 47°21' W 002°31'0 0.0
2015-Jun-27 01:33N 47°21' W 002°31'0 0.0
2015-Jun-27 00:33N 47°21' W 002°31'0 0.0
2015-Jun-26 23:33N 47°21' W 002°31'0 0.0
2015-Jun-26 22:32N 47°21' W 002°31'0 0.0
2015-Jun-26 21:33N 47°21' W 002°31'0 0.0
2015-Jun-26 20:33N 47°21' W 002°31'0 0.0
2015-Jun-26 19:33N 47°21' W 002°31'0 0.0
2015-Jun-26 18:33N 47°21' W 002°31'0 0.0
2015-Jun-26 17:33N 47°21' W 002°31'0 0.0
2015-Jun-26 16:33N 47°21' W 002°31'0 0.0
2015-Jun-26 15:33N 47°21' W 002°31'0 0.0
2015-Jun-26 14:33N 47°21' W 002°31'0 0.0
2015-Jun-26 13:33N 47°21' W 002°31'0 0.0
2015-Jun-26 12:33N 47°21' W 002°31'0 0.0
2015-Jun-26 11:33N 47°21' W 002°31'0 0.0
2015-Jun-26 10:33N 47°21' W 002°31'0 0.0
2015-Jun-26 09:33N 47°21' W 002°31'0 0.0
2015-Jun-26 08:33N 47°21' W 002°31'0 0.0
2015-Jun-26 07:33N 47°21' W 002°31'0 0.0
2015-Jun-26 06:33N 47°21' W 002°31'0 0.0
2015-Jun-26 05:33N 47°21' W 002°31'0 0.0
2015-Jun-26 04:33N 47°21' W 002°31'0 0.4
2015-Jun-26 03:33N 47°21' W 002°31'7 7.4
2015-Jun-26 02:33N 47°19' W 002°42'8 8.3
2015-Jun-26 01:33N 47°16' W 002°53'8 8.3
2015-Jun-26 00:33N 47°13' W 003°05'8 8.4
2015-Jun-25 23:33N 47°09' W 003°16'9 8.5
2015-Jun-25 22:33N 47°06' W 003°28'9 8.7
2015-Jun-25 21:33N 47°03' W 003°40'9 9.1
2015-Jun-25 20:33N 46°60' W 003°52'9 8.5
2015-Jun-25 19:33N 46°56' W 004°03'9 8.8
2015-Jun-25 18:32N 46°53' W 004°16'10 8.8
2015-Jun-25 17:25N 46°49' W 004°29'7 8.1
2015-Jun-25 16:33N 46°47' W 004°38'9 7.5
2015-Jun-25 15:19N 46°43' W 004°51'9 7.9
2015-Jun-25 14:07N 46°39' W 005°03'1 1.8
2015-Jun-25 13:27N 46°39' W 005°05'3 2.8
2015-Jun-25 12:29N 46°38' W 005°01'4 4.5
2015-Jun-25 11:32N 46°38' W 004°55'6 2.9
2015-Jun-25 09:33N 46°42' W 005°00'4 3.8
2015-Jun-25 08:33N 46°39' W 004°57'5 4.9
2015-Jun-25 07:33N 46°35' W 004°53'1 0.6
2015-Jun-25 05:28N 46°35' W 004°51'6 1.5
2015-Jun-25 01:30N 46°38' W 004°58'0 0.2
2015-Jun-25 00:25N 46°38' W 004°58'0 0.3
2015-Jun-24 23:33N 46°38' W 004°58'0 0.4
2015-Jun-24 22:32N 46°37' W 004°58'0 0.2
2015-Jun-24 21:33N 46°37' W 004°59'2 0.3
2015-Jun-24 14:12N 46°36' W 004°56'9 5.3
2015-Jun-24 12:24N 46°36' W 004°43'48 9.2
2015-Jun-24 07:14N 46°54' W 003°38'6 9.3
2015-Jun-24 06:33N 46°58' W 003°30'9 9.5
2015-Jun-24 05:33N 47°03' W 003°19'9 9.4
2015-Jun-24 04:33N 47°08' W 003°07'10 9.5
2015-Jun-24 03:33N 47°12' W 002°55'10 9.9
2015-Jun-24 02:33N 47°18' W 002°42'8 8.3
2015-Jun-24 01:32N 47°21' W 002°31'0 0.0
2015-Jun-24 00:32N 47°21' W 002°31'0 0.5
2015-Jun-23 23:33N 47°20' W 002°31'9 9.3
2015-Jun-23 22:32N 47°17' W 002°44'9 9.5
2015-Jun-23 21:33N 47°12' W 002°56'10 9.6
2015-Jun-23 20:33N 47°07' W 003°08'  
Track history (hours):
 
Tides and Currents Weather Stations Pressure Air Temp Water Temp Dewpoint Dewpoint Depression Visibility Wind Speed Wind Dir Waves Ship Positions

F/V Mailys Charlie

Last reported at 2015-Jul-03 10:34 UTC. Time now 2015-Jul-03 10:39 UTC.
Position N 47°21' W 002°31'.

Length 19 m.

Type: Fishing. MMSI: 228240800.

Date/timePositionNaut miles runAvg speedWind from/ knotsBaromVisibWave heightAir tempDewpointWater temp
2015-Jul-03 10:34N 47°21' W 002°31'0 0.0
2015-Jul-03 09:33N 47°21' W 002°31'0 0.0
2015-Jul-03 08:33N 47°21' W 002°31'0 0.0
2015-Jul-03 07:33N 47°21' W 002°31'0 0.0
2015-Jul-03 06:33N 47°21' W 002°31'0 0.0
2015-Jul-03 05:34N 47°21' W 002°31'0 0.0
2015-Jul-03 04:33N 47°21' W 002°31'0 0.0
2015-Jul-03 03:32N 47°21' W 002°31'0 0.0
2015-Jul-03 02:33N 47°21' W 002°31'0 0.0
2015-Jul-03 01:33N 47°21' W 002°31'0 0.0
2015-Jul-03 00:34N 47°21' W 002°31'0 0.0
2015-Jul-02 23:33N 47°21' W 002°31'0 0.0
2015-Jul-02 22:33N 47°21' W 002°31'0 0.0
2015-Jul-02 21:33N 47°21' W 002°31'0 0.0
2015-Jul-02 20:32N 47°21' W 002°31'0 0.0
2015-Jul-02 19:34N 47°21' W 002°31'0 0.0
2015-Jul-02 18:32N 47°21' W 002°31'0 0.0
2015-Jul-02 17:33N 47°21' W 002°31'0 0.0
2015-Jul-02 16:33N 47°21' W 002°31'0 0.0
2015-Jul-02 15:33N 47°21' W 002°31'0 0.0
2015-Jul-02 14:33N 47°21' W 002°31'0 0.0
2015-Jul-02 13:33N 47°21' W 002°31'0 0.0
2015-Jul-02 12:33N 47°21' W 002°31'0 0.0
2015-Jul-02 11:34N 47°21' W 002°31'0 0.0
2015-Jul-02 10:33N 47°21' W 002°31'0 0.0
2015-Jul-02 09:33N 47°21' W 002°31'0 0.0
2015-Jul-02 08:33N 47°21' W 002°31'0 0.0
2015-Jul-02 07:33N 47°21' W 002°31'0 0.0
2015-Jul-02 06:33N 47°21' W 002°31'0 0.0
2015-Jul-02 05:33N 47°21' W 002°31'10 7.8
2015-Jul-02 04:14N 47°18' W 002°46'1910.1
2015-Jul-02 02:20N 47°13' W 003°13'810.1
2015-Jul-02 01:32N 47°10' W 003°24'1010.0
2015-Jul-02 00:33N 47°08' W 003°38'1010.1
2015-Jul-01 23:31N 47°05' W 003°52'10 9.9
2015-Jul-01 22:33N 47°02' W 004°06'44 8.7
2015-Jul-01 17:30N 46°49' W 005°07'16 1.3
2015-Jul-01 05:18N 46°37' W 004°52'5 5.5
2015-Jul-01 04:28N 46°38' W 004°46'2 1.9
2015-Jul-01 03:33N 46°39' W 004°44'1 0.6
2015-Jul-01 02:32N 46°39' W 004°44'1 1.0
2015-Jul-01 01:32N 46°40' W 004°45'1 1.1
2015-Jul-01 00:33N 46°41' W 004°46'1 1.1
2015-Jun-30 23:33N 46°41' W 004°48'1 0.9
2015-Jun-30 22:32N 46°41' W 004°49'1 0.7
2015-Jun-30 21:24N 46°41' W 004°50'0 0.4
2015-Jun-30 20:30N 46°41' W 004°51'4 4.4
2015-Jun-30 19:33N 46°37' W 004°52'2 2.3
2015-Jun-30 18:33N 46°38' W 004°55'8 7.3
2015-Jun-30 17:30N 46°45' W 004°59'24 2.4
2015-Jun-30 07:33N 46°51' W 005°33'1 0.9
2015-Jun-30 06:24N 46°50' W 005°34'17 1.5
2015-Jun-29 19:20N 46°48' W 005°10'3 3.9
2015-Jun-29 18:33N 46°48' W 005°05'20 9.5
2015-Jun-29 16:27N 46°55' W 004°38'9 9.8
2015-Jun-29 15:33N 46°58' W 004°25'10 9.5
2015-Jun-29 14:30N 47°00' W 004°11'9 9.3
2015-Jun-29 13:30N 47°03' W 003°58'10 9.2
2015-Jun-29 12:22N 47°05' W 003°43'8 9.2
2015-Jun-29 11:33N 47°07' W 003°32'9 9.1
2015-Jun-29 10:33N 47°10' W 003°20'9 9.3
2015-Jun-29 09:33N 47°13' W 003°07'9 9.4
2015-Jun-29 08:33N 47°16' W 002°54'10 9.7
2015-Jun-29 07:33N 47°19' W 002°40'6 6.1
2015-Jun-29 06:29N 47°21' W 002°31'3 1.8
2015-Jun-29 04:33N 47°20' W 002°36'9 9.2
2015-Jun-29 03:33N 47°17' W 002°49'9 9.4
2015-Jun-29 02:33N 47°14' W 003°01'10 9.6
2015-Jun-29 01:33N 47°10' W 003°15'10 9.7
2015-Jun-29 00:33N 47°06' W 003°27'10 9.8
2015-Jun-28 23:33N 47°03' W 003°41'10 9.9
2015-Jun-28 22:33N 46°60' W 003°55'10 9.6
2015-Jun-28 21:32N 46°56' W 004°08'9 9.7
2015-Jun-28 20:33N 46°52' W 004°21'10 9.5
2015-Jun-28 19:31N 46°48' W 004°34'9 9.6
2015-Jun-28 18:33N 46°44' W 004°46'5 4.5
2015-Jun-28 17:30N 46°40' W 004°49'3 3.0
2015-Jun-28 16:25N 46°43' W 004°52'2 1.7
2015-Jun-28 15:06N 46°44' W 004°54'2 4.3
2015-Jun-28 14:33N 46°42' W 004°53'2 0.5
2015-Jun-28 11:13N 46°44' W 004°54'3 4.4
2015-Jun-28 10:30N 46°41' W 004°53'4 0.9
2015-Jun-28 06:32N 46°38' W 004°48'11 3.4
2015-Jun-28 03:11N 46°44' W 004°34'6 9.8
2015-Jun-28 02:33N 46°46' W 004°26'30 9.5
2015-Jun-27 23:26N 46°59' W 003°46'8 9.3
2015-Jun-27 22:33N 47°02' W 003°35'9 9.4
2015-Jun-27 21:33N 47°06' W 003°23'9 9.4
2015-Jun-27 20:33N 47°10' W 003°10'9 9.3
2015-Jun-27 19:33N 47°14' W 002°57'9 9.5
2015-Jun-27 18:33N 47°17' W 002°44'9 8.8
2015-Jun-27 17:33N 47°20' W 002°32'1 1.0
2015-Jun-27 16:33N 47°21' W 002°31'0 0.0
2015-Jun-27 15:33N 47°21' W 002°31'0 0.0
2015-Jun-27 14:33N 47°21' W 002°31'0 0.0
2015-Jun-27 13:33N 47°21' W 002°31'0 0.0
2015-Jun-27 12:33N 47°21' W 002°31'0 0.0
2015-Jun-27 11:33N 47°21' W 002°31'0 0.0
2015-Jun-27 10:33N 47°21' W 002°31'0 0.0
2015-Jun-27 09:33N 47°21' W 002°31'0 0.0
2015-Jun-27 08:32N 47°21' W 002°31'0 0.0
2015-Jun-27 07:33N 47°21' W 002°31'0 0.0
2015-Jun-27 06:33N 47°21' W 002°31'0 0.0
2015-Jun-27 05:33N 47°21' W 002°31'0 0.0
2015-Jun-27 04:33N 47°21' W 002°31'0 0.0
2015-Jun-27 03:33N 47°21' W 002°31'0 0.0
2015-Jun-27 02:33N 47°21' W 002°31'0 0.0
2015-Jun-27 01:33N 47°21' W 002°31'0 0.0
2015-Jun-27 00:33N 47°21' W 002°31'0 0.0
2015-Jun-26 23:33N 47°21' W 002°31'0 0.0
2015-Jun-26 22:32N 47°21' W 002°31'0 0.0
2015-Jun-26 21:33N 47°21' W 002°31'0 0.0
2015-Jun-26 20:33N 47°21' W 002°31'0 0.0
2015-Jun-26 19:33N 47°21' W 002°31'0 0.0
2015-Jun-26 18:33N 47°21' W 002°31'0 0.0
2015-Jun-26 17:33N 47°21' W 002°31'0 0.0
2015-Jun-26 16:33N 47°21' W 002°31'0 0.0
2015-Jun-26 15:33N 47°21' W 002°31'0 0.0
2015-Jun-26 14:33N 47°21' W 002°31'0 0.0
2015-Jun-26 13:33N 47°21' W 002°31'0 0.0
2015-Jun-26 12:33N 47°21' W 002°31'0 0.0
2015-Jun-26 11:33N 47°21' W 002°31'0 0.0
2015-Jun-26 10:33N 47°21' W 002°31'0 0.0
2015-Jun-26 09:33N 47°21' W 002°31'0 0.0
2015-Jun-26 08:33N 47°21' W 002°31'0 0.0
2015-Jun-26 07:33N 47°21' W 002°31'0 0.0
2015-Jun-26 06:33N 47°21' W 002°31'0 0.0
2015-Jun-26 05:33N 47°21' W 002°31'0 0.0
2015-Jun-26 04:33N 47°21' W 002°31'0 0.4
2015-Jun-26 03:33N 47°21' W 002°31'7 7.4
2015-Jun-26 02:33N 47°19' W 002°42'8 8.3
2015-Jun-26 01:33N 47°16' W 002°53'8 8.3
2015-Jun-26 00:33N 47°13' W 003°05'8 8.4
2015-Jun-25 23:33N 47°09' W 003°16'9 8.5
2015-Jun-25 22:33N 47°06' W 003°28'9 8.7
2015-Jun-25 21:33N 47°03' W 003°40'9 9.1
2015-Jun-25 20:33N 46°60' W 003°52'9 8.5
2015-Jun-25 19:33N 46°56' W 004°03'9 8.8
2015-Jun-25 18:32N 46°53' W 004°16'10 8.8
2015-Jun-25 17:25N 46°49' W 004°29'7 8.1
2015-Jun-25 16:33N 46°47' W 004°38'9 7.5
2015-Jun-25 15:19N 46°43' W 004°51'9 7.9
2015-Jun-25 14:07N 46°39' W 005°03'1 1.8
2015-Jun-25 13:27N 46°39' W 005°05'3 2.8
2015-Jun-25 12:29N 46°38' W 005°01'4 4.5
2015-Jun-25 11:32N 46°38' W 004°55'6 2.9
2015-Jun-25 09:33N 46°42' W 005°00'4 3.8
2015-Jun-25 08:33N 46°39' W 004°57'5 4.9
2015-Jun-25 07:33N 46°35' W 004°53'1 0.6
2015-Jun-25 05:28N 46°35' W 004°51'6 1.5
2015-Jun-25 01:30N 46°38' W 004°58'0 0.2
2015-Jun-25 00:25N 46°38' W 004°58'0 0.3
2015-Jun-24 23:33N 46°38' W 004°58'0 0.4
2015-Jun-24 22:32N 46°37' W 004°58'0 0.2
2015-Jun-24 21:33N 46°37' W 004°59'2 0.3
2015-Jun-24 14:12N 46°36' W 004°56'9 5.3
2015-Jun-24 12:24N 46°36' W 004°43'48 9.2
2015-Jun-24 07:14N 46°54' W 003°38'6 9.3
2015-Jun-24 06:33N 46°58' W 003°30'9 9.5
2015-Jun-24 05:33N 47°03' W 003°19'9 9.4
2015-Jun-24 04:33N 47°08' W 003°07'10 9.5
2015-Jun-24 03:33N 47°12' W 002°55'10 9.9
2015-Jun-24 02:33N 47°18' W 002°42'8 8.3
2015-Jun-24 01:32N 47°21' W 002°31'0 0.0
2015-Jun-24 00:32N 47°21' W 002°31'0 0.5
2015-Jun-23 23:33N 47°20' W 002°31'9 9.3
2015-Jun-23 22:32N 47°17' W 002°44'9 9.5
2015-Jun-23 21:33N 47°12' W 002°56'10 9.6
2015-Jun-23 20:33N 47°07' W 003°08'  

Dump ship's entire track history